Terminal Aerodrome Forecast
Issued by NWS

Home | Current Version | Previous Version | Text Only | Print | Product List | Glossary On
Versions: 1 2 3 4 5 6 7 8 9 10 11 12 13 14 15 16 17 18 19 20 21 22
000
FTPA31 PHFO 301700
TAFMDY
TAF
PMDY 301721Z 3018/3118 13020G28KT P6SM VCSH SCT020 BKN050 OVC120
     FM301900 15020KT P6SM VCSH SCT020 BKN045 BKN120
     FM310500 18018KT P6SM VCSH SCT020 BKN045 BKN120
      AMD LTD TO CLD AND WIND=

USA.gov is the U.S. government's official web portal to all federal, state and local government web resources and services.